Terminal Aerodrome Forecast
Issued by NWS

Home | Current Version | Previous Version | Text Only | Print | Product List | Glossary On
Versions: 1 2 3 4 5 6 7 8 9 10 11 12 13 14 15 16 17 18 19 20 21 22 23 24 25
000
FTUS46 KPDT 171700 AAA
TAFPSC
TAF AMD
KPSC 171758Z 1718/1818 VRB04KT P6SM SCT015 OVC070
      TEMPO 1718/1721 6SM BR OVC015
     FM172100 VRB03KT P6SM BKN009 OVC015
     FM180000 02003KT P6SM OVC007
     FM180400 VRB03KT 5SM BR OVC007
     FM180900 00000KT 4SM BR OVC005
     FM181700 VRB02KT 4SM BR OVC009=

USA.gov is the U.S. government's official web portal to all federal, state and local government web resources and services.